Latest Weather Observations for Trepell

IDQ60801

Issued at 10:02 am EST Wednesday 1 July 2015 (issued every 30 minutes, with the page automatically refreshed every 10 minutes)

About weather observations | Map of weather stations | Latest weather observations for QLD | Other Formats
Station Details ID: 037036 Name: TREPELL AIRPORT Lat: -21.84 Lon: 140.89 Height: 266.2 m
Data from the previous 72 hours. | See also: Recent months at Trepell
Date/Time
EST
Temp
°C
App
Temp
°C
Dew
Point
Rel
Hum
%
Delta-T
°C
Wind Press
QNH
hPa
Press
MSL
hPa
Rain
since 9 am
mm
Dir
 
Spd
km/h
Gust
km/h
Spd
kts
Gust
kts
01/10:00am 20.0 18.0 13.9 68 3.5 SE 17 22 9 12 1025.8 1025.4 0.0
01/09:30am 18.2 16.9 13.7 75 2.6 SSE 13 17 7 9 1025.8 1025.4 0.0
01/09:00am 16.9 16.5 14.0 83 1.7 S 9 13 5 7 1025.6 1025.2 0.0
01/08:56am 16.7 16.3 14.0 84 1.6 S 9 13 5 7 1025.5 1025.1 0.0
01/08:43am 16.0 16.1 14.0 88 1.1 SW 6 9 3 5 1025.5 1025.1 0.0
01/08:30am 15.3 15.2 13.8 91 0.8 SW 7 9 4 5 1025.4 1024.9 0.0
01/08:00am 14.5 14.4 13.2 92 0.7 SW 6 7 3 4 1025.1 1024.6 0.0
01/07:35am 14.3 15.2 13.0 92 0.7 CALM 0 0 0 0 1024.8 1024.3 0.0
01/07:30am 14.3 15.2 13.0 92 0.7 CALM 0 6 0 3 1024.7 1024.2 0.0
01/07:17am 14.5 13.8 13.2 92 0.7 SSE 9 11 5 6 1024.6 1024.1 0.0
01/07:10am 14.3 14.0 12.7 90 0.9 S 6 11 3 6 1024.5 1024.0 0.0
01/07:06am 14.2 14.2 12.4 89 1.0 SSW 4 9 2 5 1024.3 1023.8 0.0
01/07:00am 14.1 13.4 12.0 87 1.1 SW 7 9 4 5 1024.2 1023.7 0.0
01/06:30am 14.3 13.7 12.3 88 1.1 WSW 7 9 4 5 1023.7 1023.3 0.0
01/06:00am 14.7 14.4 12.7 88 1.1 SW 6 7 3 4 1023.4 1023.0 0.0
01/05:30am 15.0 16.0 13.2 89 1.0 CALM 0 0 0 0 1023.1 1022.7 0.0
01/05:00am 15.1 14.3 13.0 87 1.2 SSW 9 11 5 6 1023.0 1022.6 0.0
01/04:30am 15.3 14.2 13.0 86 1.3 SSW 11 13 6 7 1022.9 1022.5 0.0
01/04:00am 15.3 14.3 12.2 82 1.7 SSW 9 11 5 6 1022.9 1022.5 0.0
01/03:30am 16.0 15.2 12.9 82 1.7 SSW 9 11 5 6 1023.1 1022.7 0.0
01/03:00am 16.8 16.8 13.5 81 1.9 S 6 7 3 4 1023.2 1022.8 0.0
01/02:30am 17.3 16.7 13.6 79 2.1 SSW 9 11 5 6 1023.1 1022.7 0.0
01/02:00am 18.1 17.2 13.6 75 2.6 SSE 11 17 6 9 1023.3 1022.9 0.0
01/01:30am 19.1 17.9 13.9 72 3.0 SE 13 17 7 9 1023.5 1023.1 0.0
01/01:00am 20.0 18.8 13.9 68 3.5 ESE 13 17 7 9 1023.5 1023.1 0.0
01/12:30am 20.1 19.3 14.0 68 3.6 E 11 13 6 7 1023.4 1023.0 0.0
 
Date/Time
EST
Temp
°C
App
Temp
°C
Dew
Point
Rel
Hum
%
Delta-T
°C
Wind Press
QNH
hPa
Press
MSL
hPa
Rain
since 9 am
mm
Dir
 
Spd
km/h
Gust
km/h
Spd
kts
Gust
kts
30/11:30pm 20.2 18.7 14.1 68 3.6 ESE 15 19 8 10 1023.7 1023.3 0.0
30/11:00pm 20.4 19.2 14.1 67 3.7 E 13 15 7 8 1023.9 1023.4 0.0
30/10:30pm 20.0 19.7 14.4 70 3.3 E 9 11 5 6 1023.9 1023.4 0.0
30/10:00pm 20.0 18.3 14.8 72 3.1 SE 17 20 9 11 1024.1 1023.6 0.0
30/09:30pm 20.5 18.3 14.4 68 3.6 SE 19 26 10 14 1023.7 1023.3 0.0
30/09:00pm 21.4 18.9 14.1 63 4.3 SSE 20 28 11 15 1023.7 1023.3 0.0
30/08:30pm 21.1 19.3 13.3 61 4.5 ENE 15 19 8 10 1022.8 1022.4 0.0
30/08:00pm 21.6 20.0 12.7 57 5.1 ENE 13 17 7 9 1022.5 1022.1 0.0
30/07:30pm 22.2 20.5 12.5 54 5.6 E 13 15 7 8 1022.2 1021.7 0.0
30/07:00pm 23.0 20.7 12.9 53 5.8 E 17 19 9 10 1021.9 1021.4 0.0
30/06:30pm 23.7 20.9 13.3 52 6.1 E 20 26 11 14 1021.6 1021.1 0.0
30/06:00pm 24.5 22.5 12.8 48 6.8 ESE 15 24 8 13 1021.3 1020.8 0.0
30/05:30pm 25.1 22.6 12.3 45 7.4 ESE 17 20 9 11 1021.1 1020.6 0.0
30/05:00pm 25.8 23.3 12.3 43 7.8 ESE 17 22 9 12 1021.0 1020.5 0.0
30/04:30pm 25.2 23.9 12.4 45 7.4 ENE 11 17 6 9 1020.8 1020.3 0.0
30/04:00pm 25.5 24.3 12.7 45 7.5 ESE 11 19 6 10 1020.7 1020.2 0.0
30/03:30pm 25.6 22.6 12.1 43 7.8 ESE 19 24 10 13 1020.6 1020.1 0.0
30/03:00pm 25.6 24.3 12.4 43 7.7 ENE 11 19 6 10 1020.7 1020.2 0.0
30/02:30pm 25.2 24.2 12.4 45 7.4 E 9 13 5 7 1020.9 1020.4 0.0
30/02:00pm 25.2 23.9 12.4 45 7.4 ENE 11 17 6 9 1021.3 1020.8 0.0
30/01:30pm 25.4 23.5 12.9 45 7.3 E 15 20 8 11 1021.8 1021.3 0.0
30/01:00pm 25.1 23.9 12.7 46 7.2 ENE 11 20 6 11 1022.3 1021.9 0.0
30/12:30pm 25.3 23.5 13.2 47 7.1 ENE 15 20 8 11 1022.5 1022.1 0.0
30/12:00pm 24.1 21.3 13.3 51 6.3 NE 20 28 11 15 1022.9 1022.5 0.0
30/11:30am 23.7 21.1 13.8 53 5.9 NE 20 32 11 17 1023.2 1022.8 0.0
30/11:00am 22.8 19.8 13.8 57 5.3 NE 22 30 12 16 1023.5 1023.1 0.0
30/10:30am 22.0 19.1 13.9 60 4.8 E 22 30 12 16 1023.7 1023.3 0.0
30/10:00am 21.7 19.3 14.4 63 4.3 E 20 26 11 14 1023.7 1023.3 0.0
30/09:30am 20.1 18.8 14.7 71 3.2 E 15 19 8 10 1023.9 1023.4 0.0
30/09:00am 18.7 17.2 14.2 75 2.6 E 15 20 8 11 1023.5 1023.1 0.0
30/08:30am 18.2 16.7 13.1 72 2.9 E 13 15 7 8 1023.1 1022.7 0.0
30/08:00am 17.9 16.4 13.2 74 2.7 ESE 13 15 7 8 1022.7 1022.3 0.0
30/07:30am 17.6 15.7 13.1 75 2.6 ESE 15 19 8 10 1022.4 1022.0 0.0
30/07:00am 17.8 16.7 13.1 74 2.7 ESE 11 17 6 9 1022.1 1021.6 0.0
30/06:30am 17.6 16.0 12.9 74 2.7 ESE 13 17 7 9 1021.8 1021.3 0.0
30/06:00am 18.0 16.0 12.7 71 3.0 E 15 19 8 10 1021.5 1021.0 0.0
30/05:30am 18.7 16.1 13.1 70 3.2 E 19 22 10 12 1021.5 1021.0 0.0
30/05:00am 18.7 16.1 13.1 70 3.2 ESE 19 24 10 13 1021.4 1020.9 0.0
30/04:30am 18.7 15.9 12.7 68 3.4 E 19 22 10 12 1021.0 1020.5 0.0
30/04:00am 19.0 17.4 12.7 67 3.6 ESE 13 17 7 9 1021.2 1020.7 0.0
30/03:30am 19.6 16.6 12.6 64 4.0 ESE 20 24 11 13 1021.2 1020.7 0.0
30/03:00am 19.7 17.5 10.9 57 4.8 E 13 17 7 9 1021.1 1020.6 0.0
30/02:30am 20.1 18.4 11.1 56 5.0 ESE 11 13 6 7 1021.4 1020.9 0.0
30/02:00am 20.8 18.3 11.2 54 5.3 ESE 15 19 8 10 1021.4 1020.9 0.0
30/01:30am 20.9 17.7 11.3 54 5.4 ESE 19 24 10 13 1021.5 1021.0 0.0
30/01:00am 22.1 18.6 8.9 43 7.1 SE 17 19 9 10 1021.4 1020.9 0.0
30/12:30am 22.4 19.3 8.9 42 7.3 SSE 15 19 8 10 1021.3 1020.8 0.0
30/12:00am 22.4 19.7 8.9 42 7.3 SE 13 19 7 10 1021.2 1020.7 0.0
 
Date/Time
EST
Temp
°C
App
Temp
°C
Dew
Point
Rel
Hum
%
Delta-T
°C
Wind Press
QNH
hPa
Press
MSL
hPa
Rain
since 9 am
mm
Dir
 
Spd
km/h
Gust
km/h
Spd
kts
Gust
kts
29/11:30pm 22.4 19.3 8.9 42 7.3 SE 15 24 8 13 1021.2 1020.7 0.0
29/11:00pm 23.1 19.7 9.1 41 7.6 SE 17 22 9 12 1021.4 1020.9 0.0
29/10:30pm 23.4 20.0 9.0 40 7.8 SE 17 22 9 12 1021.5 1021.0 0.0
29/10:00pm 23.7 19.9 8.9 39 8.0 SSE 19 22 10 12 1021.4 1020.9 0.0
29/09:30pm 23.9 19.9 9.1 39 8.1 SSE 20 26 11 14 1021.3 1020.8 0.0
29/09:00pm 23.7 20.4 9.7 41 7.7 SSE 17 20 9 11 1021.2 1020.7 0.0
29/08:30pm 23.7 20.3 9.3 40 7.9 SSE 17 19 9 10 1021.1 1020.6 0.0
29/08:00pm 24.2 21.2 9.4 39 8.1 SSE 15 20 8 11 1020.7 1020.2 0.0
29/07:30pm 24.2 21.2 9.4 39 8.1 SSE 15 17 8 9 1020.5 1020.0 0.0
29/07:00pm 24.4 21.8 9.2 38 8.3 ESE 13 17 7 9 1020.1 1019.6 0.0
29/06:30pm 24.9 22.1 8.4 35 9.0 ESE 13 17 7 9 1019.6 1019.2 0.0
29/06:00pm 25.8 22.6 8.3 33 9.5 ESE 15 20 8 11 1019.3 1018.9 0.0
29/05:30pm 26.6 22.6 8.1 31 10.1 E 19 26 10 14 1019.2 1018.8 0.0
29/05:00pm 27.0 23.4 8.4 31 10.2 ESE 17 20 9 11 1019.2 1018.8 0.0
29/04:30pm 27.3 24.0 8.2 30 10.5 ESE 15 20 8 11 1019.1 1018.7 0.0
29/04:00pm 27.3 23.9 7.7 29 10.6 E 15 24 8 13 1019.1 1018.7 0.0
29/03:30pm 27.6 23.9 8.0 29 10.7 ESE 17 24 9 13 1019.1 1018.7 0.0
29/03:00pm 27.5 23.8 7.9 29 10.7 ESE 17 26 9 14 1019.4 1019.0 0.0
29/02:30pm 27.1 22.8 8.0 30 10.4 ESE 20 28 11 15 1019.5 1019.1 0.0
29/02:00pm 27.2 23.0 8.1 30 10.4 E 20 30 11 16 1020.0 1019.5 0.0
29/01:30pm 26.7 22.7 8.2 31 10.1 ENE 19 32 10 17 1020.7 1020.2 0.0
29/01:00pm 26.1 21.2 8.6 33 9.6 E 24 32 13 17 1021.4 1020.9 0.0
29/12:30pm 26.4 22.5 9.3 34 9.5 ENE 20 30 11 16 1022.0 1021.5 0.0
29/12:00pm 25.8 21.7 10.0 37 8.8 NE 22 30 12 16 1022.5 1022.1 0.0
29/11:30am 25.1 20.8 10.6 40 8.2 ENE 24 32 13 17 1022.8 1022.4 0.0
29/11:00am 24.0 19.7 10.7 43 7.4 ENE 24 32 13 17 1023.0 1022.6 0.0
29/10:30am 23.1 18.0 10.5 45 7.0 E 28 33 15 18 1023.4 1023.0 0.0
29/10:00am 22.6 17.2 11.0 48 6.5 E 30 37 16 20 1023.6 1023.2 0.0
29/09:30am 21.3 16.6 10.8 51 5.8 E 26 32 14 17 1023.5 1023.1 0.0
29/09:00am 19.2 15.3 9.4 53 5.2 E 20 26 11 14 1023.5 1023.1 0.0
29/08:30am 17.1 14.6 8.0 55 4.7 E 11 17 6 9 1023.5 1023.1 0.0
29/08:00am 15.4 12.9 6.7 56 4.3 ENE 9 11 5 6 1023.3 1022.9 0.0
29/07:30am 13.8 11.5 5.7 58 3.9 NE 7 9 4 5 1023.0 1022.6 0.0
29/07:00am 14.0 11.8 6.1 59 3.8 E 7 9 4 5 1022.7 1022.3 0.0
29/06:30am 14.6 12.6 6.2 57 4.1 ENE 6 7 3 4 1022.5 1022.1 0.0
29/06:00am 15.5 12.9 6.0 53 4.6 E 9 11 5 6 1022.2 1021.7 0.0
29/05:30am 16.9 14.8 6.7 51 5.1 E 7 9 4 5 1022.1 1021.6 0.0
29/05:00am 17.0 15.9 6.8 51 5.1 E 2 7 1 4 1022.2 1021.7 0.0
29/04:30am 16.7 15.1 6.2 50 5.2 ENE 4 7 2 4 1022.2 1021.7 0.0
29/04:00am 17.3 14.7 6.2 48 5.5 E 9 9 5 5 1022.1 1021.6 0.0
29/03:30am 17.5 15.0 6.7 49 5.4 ESE 9 11 5 6 1022.0 1021.5 0.0
29/03:00am 17.4 14.1 6.3 48 5.5 ESE 13 17 7 9 1022.0 1021.5 0.0
29/02:30am 17.2 13.1 6.1 48 5.5 ESE 17 20 9 11 1022.2 1021.7 0.0
29/02:00am 16.7 12.9 5.6 48 5.4 ESE 15 17 8 9 1022.6 1022.2 0.0
29/01:30am 17.0 12.8 5.6 47 5.6 ESE 17 20 9 11 1022.7 1022.3 0.0
29/01:00am 17.5 13.2 5.4 45 5.9 ESE 17 20 9 11 1022.9 1022.5 0.0
29/12:30am 17.5 13.6 5.4 45 5.9 ESE 15 19 8 10 1023.1 1022.7 0.0
29/12:00am 18.1 14.3 5.7 44 6.1 SE 15 17 8 9 1023.3 1022.9 0.0
 
Date/Time
EST
Temp
°C
App
Temp
°C
Dew
Point
Rel
Hum
%
Delta-T
°C
Wind Press
QNH
hPa
Press
MSL
hPa
Rain
since 9 am
mm
Dir
 
Spd
km/h
Gust
km/h
Spd
kts
Gust
kts
28/11:30pm 17.8 14.3 5.4 44 6.1 SSE 13 15 7 8 1023.5 1023.1 0.0
28/11:00pm 17.9 14.4 5.5 44 6.1 SSE 13 15 7 8 1023.5 1023.1 0.0
28/10:30pm 19.3 15.5 5.7 41 6.8 SE 15 19 8 10 1023.6 1023.2 0.0
28/10:00pm 19.9 15.7 5.9 40 7.0 SE 17 19 9 10 1023.5 1023.1 0.0
28/09:30pm 20.4 16.2 5.6 38 7.4 SE 17 19 9 10 1023.5 1023.1 0.0
28/09:00pm 21.0 16.7 5.4 36 7.8 SE 17 20 9 11 1023.6 1023.2 0.0
28/08:30pm 21.7 17.5 5.6 35 8.1 SE 17 22 9 12 1023.3 1022.9 0.0
28/08:00pm 22.1 17.4 5.1 33 8.5 SE 19 22 10 12 1023.0 1022.6 0.0
28/07:30pm 22.4 18.5 5.4 33 8.6 SE 15 19 8 10 1022.7 1022.3 0.0
28/07:00pm 22.2 18.3 5.2 33 8.5 SSE 15 17 8 9 1022.4 1022.0 0.0
28/06:30pm 23.2 19.4 5.6 32 9.0 SSE 15 19 8 10 1022.2 1021.7 0.0
28/06:00pm 24.7 20.5 5.5 29 9.8 SE 17 19 9 10 1022.0 1021.5 0.0
28/05:30pm 25.7 21.5 5.8 28 10.4 ESE 17 24 9 13 1021.7 1021.2 0.0
28/05:00pm 26.1 21.9 5.7 27 10.6 ESE 17 22 9 12 1021.6 1021.1 0.0
28/04:30pm 26.5 22.6 5.5 26 10.9 SSE 15 24 8 13 1021.3 1020.8 0.0
28/04:00pm 26.3 22.0 5.3 26 10.8 E 17 24 9 13 1021.3 1020.8 0.0
28/03:30pm 26.7 22.1 5.6 26 11.0 E 19 28 10 15 1021.5 1021.0 0.0
28/03:00pm 26.5 23.1 6.0 27 10.7 NE 13 20 7 11 1021.7 1021.2 0.0
28/02:30pm 25.0 21.7 6.2 30 9.8 ENE 13 22 7 12 1022.0 1021.5 0.0
28/02:00pm 26.1 22.6 7.2 30 10.1 E 15 24 8 13 1022.2 1021.7 0.0
28/01:30pm 26.2 22.7 8.7 33 9.6 ENE 17 26 9 14 1022.5 1022.1 0.0
28/01:00pm 25.3 21.6 7.9 33 9.3 E 17 30 9 16 1023.1 1022.7 0.0
28/12:30pm 24.8 20.3 8.7 36 8.8 E 22 30 12 16 1023.9 1023.4 0.0
28/12:00pm 24.4 20.5 9.6 39 8.1 ENE 20 30 11 16 1024.3 1023.8 0.0
28/11:30am 23.8 19.7 10.1 42 7.6 ENE 22 32 12 17 1024.8 1024.3 0.0
28/11:00am 23.2 18.8 10.3 44 7.1 E 24 32 13 17 1025.2 1024.7 0.0
28/10:30am 22.5 18.1 10.3 46 6.8 ENE 24 37 13 20 1025.5 1025.1 0.0

Other Formats:

Comma delimited format used in spreadsheet applications
http://www.bom.gov.au/fwo/IDQ60801/IDQ60801.94338.axf

JavaScript Object Notation format (JSON) in row-major order
http://www.bom.gov.au/fwo/IDQ60801/IDQ60801.94338.json